createdAt,value
2017-05-29T00:00:41.160Z,73.24
2017-05-29T00:10:39.029Z,75.16
2017-05-29T00:15:35.635Z,75.74
2017-05-29T00:20:31.983Z,75.80
2017-05-29T00:25:29.498Z,76.28
2017-05-29T00:30:27.945Z,76.57
2017-05-29T00:40:24.006Z,77.09
2017-05-29T00:45:21.327Z,78.25
2017-05-29T00:55:21.766Z,78.98
2017-05-29T01:00:17.905Z,81.16
2017-05-29T01:10:14.477Z,81.45
2017-05-29T01:15:11.249Z,82.60
2017-05-29T01:20:07.273Z,82.98
2017-05-29T01:25:03.940Z,83.81
2017-05-29T01:30:04.278Z,83.52
2017-05-29T01:45:02.805Z,84.87
2017-05-29T01:49:58.449Z,85.50
2017-05-29T01:54:58.227Z,86.12
2017-05-29T01:59:53.670Z,86.56
2017-05-29T02:30:02.804Z,87.81
2017-05-29T02:35:03.270Z,88.10
2017-05-29T02:50:09.383Z,89.06
2017-05-29T02:55:06.079Z,90.50
2017-05-29T03:00:04.193Z,90.21
2017-05-29T03:04:59.990Z,91.22
2017-05-29T03:09:57.769Z,91.42
2017-05-29T03:14:55.964Z,91.80
2017-05-29T03:19:52.886Z,91.27
2017-05-29T03:29:55.805Z,92.57
2017-05-29T03:34:51.319Z,94.88
2017-05-29T03:39:51.338Z,94.73
2017-05-29T03:44:46.783Z,94.45
2017-05-29T03:49:42.801Z,95.07
2017-05-29T03:54:38.856Z,95.94
2017-05-29T03:59:36.409Z,96.32
2017-05-29T04:04:33.529Z,96.32
2017-05-29T04:09:29.761Z,96.61
2017-05-29T04:14:27.649Z,96.03
2017-05-29T04:24:28.978Z,95.12
2017-05-29T04:29:27.564Z,93.44
2017-05-29T04:34:23.220Z,92.86
2017-05-29T04:39:20.068Z,92.04
2017-05-29T04:44:16.806Z,90.83
2017-05-29T04:49:13.797Z,89.78
2017-05-29T04:54:10.267Z,89.20
2017-05-29T04:59:09.088Z,89.15
2017-05-29T05:04:05.060Z,88.85
2017-05-29T05:09:01.319Z,89.97
2017-05-29T05:13:59.240Z,90.83
2017-05-29T05:18:55.876Z,89.24
2017-05-29T05:28:52.646Z,88.13
2017-05-29T05:33:49.400Z,87.12
2017-05-29T05:38:47.036Z,85.91
2017-05-29T05:43:43.218Z,85.46
2017-05-29T05:48:40.456Z,83.67
2017-05-29T05:53:38.370Z,85.13
2017-05-29T05:58:34.107Z,87.88
2017-05-29T06:03:31.064Z,88.51
2017-05-29T06:23:41.882Z,88.41
2017-05-29T06:28:37.456Z,88.60
2017-05-29T06:33:34.119Z,89.28
2017-05-29T06:38:31.391Z,89.18
2017-05-29T06:43:28.684Z,89.76
2017-05-29T06:48:25.291Z,90.15
2017-05-29T06:53:21.172Z,89.81
2017-05-29T06:58:17.131Z,89.23
2017-05-29T07:03:13.212Z,90.29
2017-05-29T07:13:12.014Z,88.45
2017-05-29T07:18:08.306Z,88.45
2017-05-29T07:28:10.938Z,89.12
2017-05-29T07:33:06.649Z,88.73
2017-05-29T07:38:03.551Z,88.15
2017-05-29T07:48:02.857Z,87.37
2017-05-29T07:53:02.436Z,85.29
2017-05-29T07:57:59.749Z,82.86
2017-05-29T08:02:57.121Z,83.53
2017-05-29T08:07:54.197Z,81.77
2017-05-29T08:12:54.000Z,80.07
2017-05-29T08:17:51.433Z,80.65
2017-05-29T08:22:47.508Z,81.33
2017-05-29T08:27:44.424Z,79.49
2017-05-29T08:32:42.319Z,81.04
2017-05-29T08:42:41.217Z,81.04
2017-05-29T08:47:38.107Z,81.13
2017-05-29T08:52:33.801Z,80.50
2017-05-29T08:57:32.988Z,78.34
2017-05-29T09:02:28.477Z,78.59
2017-05-29T09:07:24.386Z,80.69
2017-05-29T09:12:20.685Z,79.72
2017-05-29T09:17:16.423Z,80.63
2017-05-29T09:22:13.056Z,79.02
2017-05-29T09:27:09.510Z,79.90
2017-05-29T09:32:05.952Z,76.97
2017-05-29T09:37:02.701Z,76.54
2017-05-29T09:41:59.323Z,76.05
2017-05-29T09:46:55.321Z,75.45
2017-05-29T09:51:50.862Z,75.99
2017-05-29T09:56:49.668Z,77.41
2017-05-29T10:01:45.744Z,78.34
2017-05-29T10:06:42.112Z,75.60
2017-05-29T10:11:38.492Z,73.11
2017-05-29T10:16:35.362Z,72.17
2017-05-29T10:21:33.810Z,71.62
2017-05-29T10:26:31.074Z,72.80
2017-05-29T10:31:27.321Z,71.95
2017-05-29T10:36:23.980Z,70.10
2017-05-29T10:41:19.660Z,70.65
2017-05-29T10:46:15.910Z,71.08
2017-05-29T10:51:12.873Z,71.27
2017-05-29T10:56:09.416Z,67.83
2017-05-29T11:01:08.688Z,67.50
2017-05-29T11:06:04.013Z,70.01
2017-05-29T11:11:00.073Z,70.72
2017-05-29T11:15:56.450Z,69.88
2017-05-29T11:20:53.439Z,69.88
2017-05-29T11:25:50.159Z,68.19
2017-05-29T11:30:46.937Z,68.42
2017-05-29T11:35:43.866Z,66.93
2017-05-29T11:40:43.204Z,65.95
2017-05-29T11:45:39.105Z,65.20
2017-05-29T11:50:36.043Z,63.51
2017-05-29T11:55:32.706Z,60.80
2017-05-29T12:00:29.891Z,61.97
2017-05-29T12:05:25.582Z,62.36
2017-05-29T12:10:22.723Z,62.19
2017-05-29T12:15:18.867Z,59.95
2017-05-29T12:20:14.849Z,58.80
2017-05-29T12:25:09.718Z,59.49
2017-05-29T12:30:06.138Z,59.63
2017-05-29T12:35:02.306Z,61.06
2017-05-29T12:39:58.220Z,58.61
2017-05-29T12:44:54.594Z,57.82
2017-05-29T12:54:55.992Z,60.60
2017-05-29T12:59:51.495Z,58.87
2017-05-29T13:04:47.223Z,59.14
2017-05-29T13:09:42.791Z,58.41
2017-05-29T13:14:38.870Z,60.70
2017-05-29T13:19:34.856Z,62.21
2017-05-29T13:24:31.313Z,62.60
2017-05-29T13:29:26.996Z,62.60
2017-05-29T13:34:22.682Z,62.26
2017-05-29T13:39:19.762Z,59.98
2017-05-29T13:44:18.258Z,59.09
2017-05-29T13:49:14.058Z,59.19
2017-05-29T13:54:13.578Z,60.77
2017-05-29T13:59:08.499Z,61.94
2017-05-29T14:04:04.423Z,62.70
2017-05-29T14:08:59.886Z,64.22
2017-05-29T14:13:54.665Z,65.30
2017-05-29T14:18:51.787Z,64.65
2017-05-29T14:23:46.703Z,65.26
2017-05-29T14:28:42.185Z,65.30
2017-05-29T14:33:44.203Z,64.61
2017-05-29T14:38:38.886Z,63.73
2017-05-29T14:43:36.160Z,62.11
2017-05-29T14:48:31.584Z,61.13
2017-05-29T14:53:27.484Z,60.64
2017-05-29T14:58:23.382Z,61.13
2017-05-29T15:03:19.322Z,61.52
2017-05-29T15:08:15.338Z,58.91
2017-05-29T15:13:11.232Z,59.20
2017-05-29T15:18:08.569Z,59.30
2017-05-29T15:23:04.255Z,60.06
2017-05-29T15:28:00.382Z,57.45
2017-05-29T15:32:56.472Z,52.98
2017-05-29T15:37:52.573Z,44.18
2017-05-29T15:42:48.693Z,42.71
2017-05-29T15:47:44.575Z,41.83
2017-05-29T15:52:40.648Z,43.81
2017-05-29T15:57:37.007Z,43.40
2017-05-29T16:02:33.077Z,46.04
2017-05-29T16:07:31.546Z,44.67
2017-05-29T16:12:26.982Z,44.79
2017-05-29T16:17:24.084Z,45.16
2017-05-29T16:22:20.088Z,46.06
2017-05-29T16:27:16.877Z,42.93
2017-05-29T16:32:13.822Z,41.96
2017-05-29T16:37:09.748Z,42.25
2017-05-29T16:42:05.928Z,43.99
2017-05-29T16:47:02.811Z,44.48
2017-05-29T16:51:58.527Z,46.43
2017-05-29T16:56:54.523Z,46.62
2017-05-29T17:01:50.461Z,48.58
2017-05-29T17:06:49.416Z,46.62
2017-05-29T17:11:45.821Z,47.31
2017-05-29T17:16:41.785Z,45.94
2017-05-29T17:21:37.581Z,47.50
2017-05-29T17:26:36.711Z,46.21
2017-05-29T17:31:32.318Z,46.41
2017-05-29T17:36:28.111Z,47.75
2017-05-29T17:41:24.860Z,51.37
2017-05-29T17:46:23.203Z,52.41
2017-05-29T17:51:18.056Z,54.07
2017-05-29T17:56:13.921Z,55.22
2017-05-29T18:01:12.336Z,55.32
2017-05-29T18:06:07.897Z,55.12
2017-05-29T18:11:03.533Z,56.26
2017-05-29T18:16:00.088Z,55.94
2017-05-29T18:25:57.553Z,57.18
2017-05-29T18:30:52.771Z,56.14
2017-05-29T18:35:48.969Z,56.70
2017-05-29T18:40:45.579Z,56.86
2017-05-29T18:45:41.647Z,56.47
2017-05-29T18:50:37.415Z,56.96
2017-05-29T18:55:33.308Z,57.45
2017-05-29T19:00:29.523Z,58.03
2017-05-29T19:05:25.366Z,61.99
2017-05-29T19:10:21.573Z,60.05
2017-05-29T19:15:17.067Z,63.03
2017-05-29T19:20:16.464Z,62.32
2017-05-29T19:25:11.248Z,62.90
2017-05-29T19:30:07.752Z,64.53
2017-05-29T19:35:04.175Z,64.81
2017-05-29T19:39:59.715Z,66.27
2017-05-29T19:44:55.638Z,66.24
2017-05-29T19:49:52.748Z,67.60
2017-05-29T19:54:48.819Z,68.28
2017-05-29T19:59:44.662Z,68.05
2017-05-29T20:04:40.448Z,69.32
2017-05-29T20:09:36.478Z,70.39
2017-05-29T20:14:33.489Z,70.19
2017-05-29T20:19:29.211Z,70.19
2017-05-29T20:24:25.167Z,70.67
2017-05-29T20:29:21.009Z,71.55
2017-05-29T20:34:17.008Z,72.52
2017-05-29T20:39:12.820Z,71.36
2017-05-29T20:44:08.911Z,71.84
2017-05-29T20:49:05.035Z,71.84
2017-05-29T20:54:01.116Z,72.33
2017-05-29T20:58:57.438Z,71.64
2017-05-29T21:03:55.520Z,72.61
2017-05-29T21:08:51.224Z,73.10
2017-05-29T21:13:47.247Z,73.39
2017-05-29T21:18:43.466Z,72.49
2017-05-29T21:23:39.635Z,72.09
2017-05-29T21:28:36.441Z,72.58
2017-05-29T21:33:32.200Z,72.49
2017-05-29T21:38:29.958Z,73.16
2017-05-29T21:43:25.815Z,73.52
2017-05-29T21:48:23.320Z,74.58
2017-05-29T21:53:19.499Z,74.39
2017-05-29T21:58:15.537Z,74.77
2017-05-29T22:03:11.861Z,74.87
2017-05-29T22:08:07.910Z,76.23
2017-05-29T22:13:03.970Z,76.68
2017-05-29T22:18:04.093Z,77.36
2017-05-29T22:22:59.353Z,78.03
2017-05-29T22:27:58.427Z,79.20
2017-05-29T22:32:54.139Z,80.36
2017-05-29T22:37:53.861Z,80.94
2017-05-29T22:42:49.312Z,81.62
2017-05-29T22:47:49.479Z,82.40
2017-05-29T22:52:44.501Z,82.84
2017-05-29T22:57:40.726Z,82.84
2017-05-29T23:02:41.276Z,84.10
2017-05-29T23:07:36.566Z,84.58
2017-05-29T23:12:32.749Z,84.74
2017-05-29T23:17:32.499Z,84.83
2017-05-29T23:22:30.507Z,86.00
2017-05-29T23:27:27.795Z,85.51
2017-05-29T23:32:25.861Z,86.38
2017-05-29T23:37:21.103Z,86.19
2017-05-29T23:42:17.657Z,86.73
2017-05-29T23:47:13.542Z,87.45
2017-05-29T23:52:10.976Z,87.99
2017-05-29T23:57:10.476Z,87.31
